Time;durP1;ratioP1;P1;durP2;ratioP2;P2;SDS_P1;SDS_P2;PMS_P1;PMS_P2;Temp;Humidity;BMP_temperature;BMP_pressure;BME280_temperature;BME280_humidity;BME280_pressure;Samples;Min_cycle;Max_cycle;Signal;HPM_P1;HPM_P2
2024/01/16 00:01:44;;;;;;;;;2.00;1.00;;;;;16.27;70.11;99732.41;5121535;27;45344;-71
2024/01/16 00:04:11;;;;;;;;;4.00;3.00;;;;;16.30;70.15;99737.66;5121576;27;45513;-72
2024/01/16 00:06:42;;;;;;;;;2.67;2.67;;;;;16.22;70.10;99720.16;5121397;27;45521;-71
2024/01/16 00:09:09;;;;;;;;;2.67;2.00;;;;;16.36;70.17;99744.66;5120251;27;45329;-71
2024/01/16 00:11:41;;;;;;;;;3.33;3.33;;;;;16.18;70.28;99715.78;5120187;27;45544;-71
2024/01/16 00:14:06;;;;;;;;;2.67;2.00;;;;;16.31;70.40;99738.50;5121691;27;45479;-70
2024/01/16 00:16:32;;;;;;;;;4.00;4.00;;;;;16.35;70.58;99744.66;5121147;27;45396;-71
2024/01/16 00:18:58;;;;;;;;;4.33;4.00;;;;;16.38;70.60;99753.41;5121354;27;45292;-71
2024/01/16 00:21:23;;;;;;;;;2.33;2.33;;;;;16.41;70.57;99753.41;5121432;27;45348;-71
2024/01/16 00:23:49;;;;;;;;;3.00;3.00;;;;;16.45;70.32;99743.69;5120449;27;45241;-70
2024/01/16 00:26:21;;;;;;;;;2.00;2.00;;;;;16.49;70.50;99748.06;5121416;27;45241;-71
2024/01/16 00:28:47;;;;;;;;;1.67;1.00;;;;;16.47;70.30;99745.47;5121342;27;45450;-71
2024/01/16 00:31:12;;;;;;;;;1.00;1.00;;;;;16.48;70.36;99736.66;5121131;27;45247;-71
2024/01/16 00:33:39;;;;;;;;;0.67;0.67;;;;;16.50;70.49;99744.56;5121318;27;45369;-71
2024/01/16 00:36:05;;;;;;;;;1.00;1.00;;;;;16.48;71.02;99744.56;5121574;27;45438;-71
2024/01/16 00:38:33;;;;;;;;;1.67;1.67;;;;;16.48;70.85;99741.06;5120890;27;45467;-71
2024/01/16 00:40:59;;;;;;;;;1.00;1.00;;;;;16.49;70.78;99742.78;5121487;27;45588;-71
2024/01/16 00:43:24;;;;;;;;;0.67;0.67;;;;;16.52;70.77;99734.00;5121569;27;45442;-70
2024/01/16 00:45:50;;;;;;;;;1.00;1.00;;;;;16.35;70.73;99710.38;5121403;27;45349;-70
2024/01/16 00:48:16;;;;;;;;;1.67;1.33;;;;;16.52;70.89;99742.78;5120783;27;45508;-69
2024/01/16 00:50:42;;;;;;;;;1.00;1.00;;;;;16.52;70.67;99741.91;5121076;27;45485;-70
2024/01/16 00:53:07;;;;;;;;;1.00;1.00;;;;;16.48;70.76;99731.38;5121085;27;45387;-70
2024/01/16 00:55:33;;;;;;;;;1.00;1.00;;;;;16.51;70.60;99743.66;5118895;27;45842;-70
2024/01/16 00:57:58;;;;;;;;;2.33;2.00;;;;;16.46;70.72;99738.41;5120755;27;45540;-71
2024/01/16 01:00:24;;;;;;;;;2.00;2.00;;;;;16.42;70.84;99735.81;5120476;27;45435;-71
2024/01/16 01:02:50;;;;;;;;;2.67;2.67;;;;;16.35;70.98;99739.38;5120492;27;45513;-71
2024/01/16 01:05:15;;;;;;;;;3.00;2.00;;;;;16.40;70.82;99741.09;5120595;27;45477;-70
2024/01/16 01:07:41;;;;;;;;;2.00;2.00;;;;;16.37;70.83;99751.66;5120126;27;46497;-70
2024/01/16 01:10:07;;;;;;;;;1.67;1.67;;;;;16.35;70.71;99748.16;5120522;27;45359;-70
2024/01/16 01:12:32;;;;;;;;;1.00;1.00;;;;;16.34;70.76;99751.69;5119956;27;45430;-70
2024/01/16 01:14:58;;;;;;;;;2.00;2.00;;;;;16.34;70.60;99758.72;5119749;27;45274;-72
2024/01/16 01:17:24;;;;;;;;;2.00;1.33;;;;;16.34;70.58;99762.22;5120448;27;45408;-71
2024/01/16 01:19:50;;;;;;;;;0.67;0.67;;;;;16.33;70.49;99760.47;5120572;27;45444;-70
2024/01/16 01:22:15;;;;;;;;;1.67;1.00;;;;;16.34;70.42;99764.00;5120707;27;46156;-70
2024/01/16 01:24:41;;;;;;;;;1.00;0.00;;;;;16.21;70.18;99739.47;5120746;27;45486;-70
2024/01/16 01:27:07;;;;;;;;;1.00;1.00;;;;;16.21;70.37;99742.09;5120358;27;45580;-71
2024/01/16 01:29:32;;;;;;;;;0.00;0.00;;;;;16.14;70.22;99743.03;5120374;27;45408;-71
2024/01/16 01:31:58;;;;;;;;;0.00;0.00;;;;;16.32;69.96;99768.41;5120612;27;45304;-70
2024/01/16 01:34:23;;;;;;;;;0.00;0.00;;;;;16.26;69.28;99764.03;5120961;27;45530;-70
2024/01/16 01:36:49;;;;;;;;;0.00;0.00;;;;;16.27;69.39;99765.78;5120034;27;45875;-70
2024/01/16 01:39:14;;;;;;;;;0.00;0.00;;;;;16.20;68.93;99758.81;5120454;27;45360;-69
2024/01/16 01:42:33;;;;;;;;;0.00;0.00;;;;;16.17;69.53;99758.81;5120560;27;45279;-70
2024/01/16 01:44:58;;;;;;;;;0.00;0.00;;;;;16.18;69.05;99757.94;5121000;27;45303;-70
2024/01/16 01:47:24;;;;;;;;;0.00;0.00;;;;;16.14;68.77;99759.72;5120215;27;46009;-70
2024/01/16 01:49:51;;;;;;;;;0.00;0.00;;;;;16.13;68.70;99762.34;5120190;27;45488;-70
2024/01/16 01:52:17;;;;;;;;;0.00;0.00;;;;;16.00;68.64;99751.88;5120307;27;45454;-70
2024/01/16 01:54:44;;;;;;;;;0.00;0.00;;;;;16.09;68.04;99758.84;5120338;27;45521;-71
2024/01/16 01:57:10;;;;;;;;;0.00;0.00;;;;;16.08;68.28;99768.50;5119884;27;45436;-70
2024/01/16 01:59:36;;;;;;;;;0.00;0.00;;;;;16.05;68.18;99754.47;5119939;27;45239;-70
2024/01/16 02:02:04;;;;;;;;;0.00;0.00;;;;;16.08;68.34;99767.66;5120332;27;45343;-70
2024/01/16 02:04:31;;;;;;;;;0.00;0.00;;;;;15.96;68.57;99744.88;5120681;27;45503;-71
2024/01/16 02:06:58;;;;;;;;;1.00;0.33;;;;;15.88;68.98;99728.22;5119876;27;45348;-70
2024/01/16 02:09:23;;;;;;;;;1.00;0.00;;;;;16.01;68.98;99753.59;5119842;27;45555;-70
2024/01/16 02:11:49;;;;;;;;;1.00;1.00;;;;;15.99;69.17;99747.47;5120076;27;45263;-71
2024/01/16 02:14:15;;;;;;;;;0.33;0.33;;;;;15.98;69.48;99747.50;5120139;27;45428;-72
2024/01/16 02:16:42;;;;;;;;;0.00;0.00;;;;;15.95;69.44;99745.75;5119877;27;45330;-72
2024/01/16 02:19:08;;;;;;;;;0.00;0.00;;;;;15.94;69.36;99736.09;5119941;27;45490;-70
2024/01/16 02:21:41;;;;;;;;;0.00;0.00;;;;;15.86;69.46;99722.97;5120199;27;45357;-70
2024/01/16 02:24:08;;;;;;;;;0.00;0.00;;;;;15.87;69.53;99721.19;5117392;27;45423;-71
2024/01/16 02:26:34;;;;;;;;;0.00;0.00;;;;;15.89;69.39;99715.03;5119857;27;46104;-70
2024/01/16 02:29:04;;;;;;;;;0.00;0.00;;;;;15.87;69.57;99715.94;5119847;27;45316;-72
2024/01/16 02:31:30;;;;;;;;;0.00;0.00;;;;;15.85;69.29;99721.19;5120121;27;45359;-70
2024/01/16 02:33:56;;;;;;;;;0.00;0.00;;;;;15.63;69.55;99686.16;5119955;27;45380;-71
2024/01/16 02:36:22;;;;;;;;;0.00;0.00;;;;;15.81;69.55;99724.72;5119487;27;45318;-71
2024/01/16 02:38:47;;;;;;;;;0.00;0.00;;;;;15.81;69.42;99730.00;5119288;27;45242;-71
2024/01/16 02:41:15;;;;;;;;;0.00;0.00;;;;;15.81;69.56;99737.03;5119504;27;45416;-71
2024/01/16 02:43:41;;;;;;;;;0.00;0.00;;;;;15.81;69.21;99744.94;5119475;27;45454;-71
2024/01/16 02:46:08;;;;;;;;;0.00;0.00;;;;;15.80;69.28;99736.16;5119132;27;45379;-71
2024/01/16 02:48:34;;;;;;;;;1.00;0.00;;;;;15.80;69.22;99727.41;5119600;27;45517;-71
2024/01/16 02:51:00;;;;;;;;;0.00;0.00;;;;;15.81;69.12;99729.13;5119293;27;45213;-69
2024/01/16 02:53:27;;;;;;;;;0.00;0.00;;;;;15.61;69.07;99703.72;5119547;27;45909;-71
2024/01/16 02:55:53;;;;;;;;;0.00;0.00;;;;;15.77;69.26;99730.91;5118568;27;46190;-70
2024/01/16 02:58:19;;;;;;;;;0.00;0.00;;;;;15.71;69.15;99718.59;5118758;27;45413;-70
2024/01/16 03:00:44;;;;;;;;;0.00;0.00;;;;;15.75;69.13;99730.03;5119136;27;45577;-71
2024/01/16 03:03:10;;;;;;;;;0.00;0.00;;;;;15.75;69.13;99734.44;5119242;27;45351;-71
2024/01/16 03:05:36;;;;;;;;;0.00;0.00;;;;;15.73;69.21;99736.19;5118873;27;45477;-71
2024/01/16 03:08:02;;;;;;;;;0.00;0.00;;;;;15.66;69.57;99735.31;5118877;27;45455;-70
2024/01/16 03:10:27;;;;;;;;;0.00;0.00;;;;;15.70;69.37;99735.28;5119093;27;45275;-70
2024/01/16 03:12:53;;;;;;;;;0.00;0.00;;;;;15.71;69.19;99731.75;5119156;27;45178;-71
2024/01/16 03:15:19;;;;;;;;;0.00;0.00;;;;;15.67;69.16;99714.22;5118589;27;45996;-71
2024/01/16 03:17:44;;;;;;;;;0.00;0.00;;;;;15.75;69.05;99722.13;5118421;27;45482;-71
2024/01/16 03:20:10;;;;;;;;;0.00;0.00;;;;;15.75;68.80;99716.88;5118965;27;45340;-71
2024/01/16 03:22:36;;;;;;;;;0.00;0.00;;;;;15.76;68.56;99720.41;5117978;27;45578;-72
2024/01/16 03:25:02;;;;;;;;;0.00;0.00;;;;;15.73;68.70;99710.72;5118348;27;45469;-71
2024/01/16 03:27:28;;;;;;;;;0.00;0.00;;;;;15.64;68.34;99692.31;5118450;27;45541;-72
2024/01/16 03:29:53;;;;;;;;;0.00;0.00;;;;;15.75;68.37;99705.47;5118471;27;45540;-72
2024/01/16 03:32:19;;;;;;;;;0.00;0.00;;;;;15.71;68.28;99707.19;5118771;27;45332;-71
2024/01/16 03:34:44;;;;;;;;;0.00;0.00;;;;;15.58;68.47;99687.06;5116374;27;45395;-71
2024/01/16 03:37:10;;;;;;;;;0.00;0.00;;;;;15.64;68.45;99694.97;5118461;27;45349;-72
2024/01/16 03:39:36;;;;;;;;;1.00;0.00;;;;;15.60;68.68;99702.00;5118751;27;45391;-71
2024/01/16 03:42:01;;;;;;;;;0.00;0.00;;;;;15.51;68.25;99686.22;5118838;27;45288;-71
2024/01/16 03:44:27;;;;;;;;;3.00;2.00;;;;;15.49;68.68;99694.13;5116946;27;46341;-71
2024/01/16 03:46:52;;;;;;;;;3.00;1.33;;;;;15.45;68.84;99700.28;5118516;27;45428;-72
2024/01/16 03:49:18;;;;;;;;;3.00;2.00;;;;;15.39;68.65;99692.41;5118478;27;45450;-71
2024/01/16 03:51:46;;;;;;;;;3.33;1.33;;;;;15.33;68.91;99689.78;5118306;27;45450;-71
2024/01/16 03:54:15;;;;;;;;;1.67;1.00;;;;;15.11;69.17;99666.16;5117979;27;46062;-71
2024/01/16 03:56:40;;;;;;;;;1.00;1.00;;;;;15.22;69.02;99681.03;5118123;27;45542;-72
2024/01/16 03:59:06;;;;;;;;;0.33;0.00;;;;;15.23;69.31;99683.69;5118479;27;45301;-72
2024/01/16 04:01:33;;;;;;;;;1.00;0.00;;;;;15.16;69.26;99674.06;5118507;27;45509;-72
2024/01/16 04:03:59;;;;;;;;;1.00;1.00;;;;;15.10;69.68;99668.81;5118140;27;46230;-72
2024/01/16 04:06:26;;;;;;;;;2.00;2.00;;;;;15.17;69.41;99688.97;5117934;27;45404;-72
2024/01/16 04:08:52;;;;;;;;;2.00;2.00;;;;;15.10;69.22;99689.88;5118029;27;45248;-72
2024/01/16 04:11:17;;;;;;;;;0.00;0.00;;;;;15.08;68.96;99678.44;5118320;27;45529;-72
2024/01/16 04:13:43;;;;;;;;;0.00;0.00;;;;;14.85;68.82;99644.31;5118016;27;45365;-72
2024/01/16 04:16:09;;;;;;;;;0.00;0.00;;;;;14.85;68.80;99660.97;5118389;27;45460;-72
2024/01/16 04:18:37;;;;;;;;;0.00;0.00;;;;;14.94;69.05;99681.13;5118174;27;45444;-72
2024/01/16 04:21:03;;;;;;;;;0.00;0.00;;;;;14.90;69.15;99677.63;5118472;27;45464;-71
2024/01/16 04:23:29;;;;;;;;;0.33;0.33;;;;;14.88;69.27;99676.75;5117702;27;45379;-71
2024/01/16 04:25:54;;;;;;;;;3.33;2.33;;;;;14.87;69.17;99682.00;5117778;27;45434;-73
2024/01/16 04:28:20;;;;;;;;;1.67;1.00;;;;;14.70;69.20;99664.50;5117885;27;45457;-71
2024/01/16 04:30:46;;;;;;;;;1.00;1.00;;;;;14.87;69.18;99688.13;5118184;27;45280;-72
2024/01/16 04:33:11;;;;;;;;;1.00;1.00;;;;;14.87;69.00;99677.63;5118270;27;45915;-72
2024/01/16 04:35:37;;;;;;;;;1.00;1.00;;;;;14.73;69.08;99653.09;5118279;27;45602;-72
2024/01/16 04:38:03;;;;;;;;;1.00;1.00;;;;;14.94;69.08;99686.41;5117808;27;45331;-72
2024/01/16 04:40:28;;;;;;;;;0.67;0.00;;;;;14.95;68.97;99689.88;5118089;27;45493;-71
2024/01/16 04:42:54;;;;;;;;;0.33;0.33;;;;;14.97;69.01;99690.75;5117620;27;45577;-73
2024/01/16 04:45:20;;;;;;;;;3.00;1.33;;;;;14.99;68.91;99695.13;5117659;27;45520;-72
2024/01/16 04:47:45;;;;;;;;;6.00;4.00;;;;;15.01;68.70;99688.13;5120334;27;45338;-72
2024/01/16 04:50:11;;;;;;;;;3.33;3.00;;;;;15.03;68.93;99683.72;5121785;27;45210;-72
2024/01/16 04:52:37;;;;;;;;;4.00;3.33;;;;;15.05;68.93;99699.50;5121183;27;45329;-72
2024/01/16 04:55:03;;;;;;;;;1.00;1.00;;;;;15.07;68.75;99697.75;5121015;27;45934;-72
2024/01/16 04:57:29;;;;;;;;;0.00;0.00;;;;;15.08;68.38;99689.88;5121035;27;45478;-71
2024/01/16 04:59:54;;;;;;;;;1.33;0.33;;;;;15.10;68.43;99687.25;5119833;27;45513;-72
2024/01/16 05:02:20;;;;;;;;;1.00;1.00;;;;;15.11;68.62;99686.34;5120981;27;45526;-72
2024/01/16 05:04:49;;;;;;;;;1.00;1.00;;;;;15.10;68.41;99682.84;5120993;27;45458;-72
2024/01/16 05:07:15;;;;;;;;;1.00;0.00;;;;;15.09;68.21;99685.47;5119489;27;45368;-73
2024/01/16 05:09:41;;;;;;;;;1.00;0.67;;;;;15.07;68.40;99680.22;5121381;27;45424;-72
2024/01/16 05:12:06;;;;;;;;;1.67;1.00;;;;;15.04;68.53;99690.75;5120636;27;46142;-72
2024/01/16 05:14:32;;;;;;;;;13.00;9.25;;;;;15.03;68.50;99688.13;5120792;27;45335;-71
2024/01/16 05:16:57;;;;;;;;;13.00;9.00;;;;;15.05;68.53;99686.38;5120664;27;45191;-71
2024/01/16 05:19:23;;;;;;;;;11.50;9.00;;;;;14.85;68.60;99647.81;5120916;27;45446;-72
2024/01/16 05:21:49;;;;;;;;;10.50;8.00;;;;;15.09;68.43;99685.47;5120374;27;45437;-71
2024/01/16 05:24:14;;;;;;;;;5.00;3.00;;;;;15.11;68.60;99689.84;5120960;27;45467;-73
2024/01/16 05:26:40;;;;;;;;;1.67;1.33;;;;;15.07;68.58;99682.84;5120996;27;45237;-72
2024/01/16 05:29:06;;;;;;;;;2.00;1.00;;;;;14.96;68.86;99678.47;5120956;27;45286;-73
2024/01/16 05:31:32;;;;;;;;;1.00;0.00;;;;;14.94;68.63;99674.97;5120366;27;45682;-71
2024/01/16 05:33:58;;;;;;;;;1.00;1.00;;;;;14.96;68.72;99686.38;5120355;27;45496;-71
2024/01/16 05:36:24;;;;;;;;;1.00;1.00;;;;;14.94;68.98;99677.59;5120644;27;45435;-73
2024/01/16 05:38:50;;;;;;;;;3.00;3.00;;;;;14.91;68.69;99666.22;5120689;27;46157;-73
2024/01/16 05:41:16;;;;;;;;;5.00;5.00;;;;;14.83;68.84;99662.72;5120647;27;46113;-72
2024/01/16 05:43:41;;;;;;;;;7.25;6.75;;;;;14.87;68.73;99679.38;5120720;27;45594;-72
2024/01/16 05:46:07;;;;;;;;;8.00;7.00;;;;;14.83;68.59;99669.75;5120442;27;45330;-73
2024/01/16 05:48:32;;;;;;;;;6.00;5.00;;;;;14.80;68.81;99670.63;5120616;27;45485;-73
2024/01/16 05:50:58;;;;;;;;;3.00;3.00;;;;;14.69;68.93;99656.63;5119965;27;45418;-72
2024/01/16 05:53:23;;;;;;;;;1.00;1.00;;;;;14.67;68.80;99661.88;5120244;27;45461;-72
2024/01/16 05:55:49;;;;;;;;;1.00;1.00;;;;;14.63;69.00;99672.41;5120152;27;45288;-72
2024/01/16 05:58:15;;;;;;;;;2.00;1.00;;;;;14.59;69.29;99665.38;5120416;27;45429;-72
2024/01/16 06:00:40;;;;;;;;;1.00;1.00;;;;;14.58;69.25;99663.63;5119896;27;46109;-71
2024/01/16 06:03:06;;;;;;;;;0.33;0.33;;;;;14.54;69.37;99673.22;5119880;27;45482;-71
2024/01/16 06:05:31;;;;;;;;;1.00;1.00;;;;;14.55;69.61;99671.50;5120395;27;45554;-71
2024/01/16 06:07:57;;;;;;;;;1.00;0.00;;;;;14.59;69.48;99670.66;5120273;27;45405;-71
2024/01/16 06:10:23;;;;;;;;;1.00;1.00;;;;;14.61;69.56;99666.25;5119705;27;46157;-72
2024/01/16 06:12:49;;;;;;;;;0.00;0.00;;;;;14.62;69.56;99668.91;5119653;27;45450;-72
2024/01/16 06:15:14;;;;;;;;;1.33;1.00;;;;;14.65;69.54;99663.63;5120036;27;45468;-72
2024/01/16 06:17:40;;;;;;;;;1.00;1.00;;;;;14.68;69.52;99668.00;5120034;27;45537;-71
2024/01/16 06:20:06;;;;;;;;;0.00;0.00;;;;;14.69;69.08;99662.75;5119376;27;45406;-71
2024/01/16 06:22:32;;;;;;;;;3.00;3.00;;;;;14.67;69.09;99653.13;5119591;27;45501;-72
2024/01/16 06:24:57;;;;;;;;;4.00;4.00;;;;;14.72;68.98;99667.13;5119706;27;45327;-72
2024/01/16 06:27:23;;;;;;;;;0.67;0.00;;;;;14.68;69.09;99662.72;5119953;27;45261;-71
2024/01/16 06:29:49;;;;;;;;;5.00;4.00;;;;;14.67;69.26;99663.63;5119526;27;45962;-72
2024/01/16 06:32:14;;;;;;;;;5.00;5.00;;;;;14.71;69.01;99668.00;5119771;27;45425;-72
2024/01/16 06:34:40;;;;;;;;;5.50;5.50;;;;;14.70;69.01;99668.88;5118200;27;45318;-72
2024/01/16 06:37:06;;;;;;;;;3.00;3.00;;;;;14.69;68.69;99656.63;5119670;27;45301;-72
2024/01/16 06:39:32;;;;;;;;;1.67;1.00;;;;;14.72;68.96;99664.47;5119337;27;45324;-72
2024/01/16 06:41:57;;;;;;;;;3.00;3.00;;;;;14.42;69.04;99616.28;5119275;27;45449;-72
2024/01/16 06:44:23;;;;;;;;;4.00;3.00;;;;;14.68;68.70;99661.00;5119501;27;45375;-71
2024/01/16 06:46:48;;;;;;;;;2.00;1.67;;;;;14.67;68.57;99659.25;5119943;27;45445;-72
2024/01/16 06:49:14;;;;;;;;;1.00;1.00;;;;;14.67;68.75;99655.75;5119034;27;46065;-71
2024/01/16 06:51:39;;;;;;;;;1.00;1.00;;;;;14.50;68.92;99639.94;5119130;27;45581;-71
2024/01/16 06:54:05;;;;;;;;;1.00;1.00;;;;;14.63;68.83;99667.13;5119348;27;45548;-72
2024/01/16 06:56:31;;;;;;;;;1.33;1.33;;;;;14.36;68.75;99624.19;5119554;27;45475;-71
2024/01/16 06:58:57;;;;;;;;;1.00;1.00;;;;;14.60;68.80;99664.50;5118932;27;46091;-72
2024/01/16 07:01:23;;;;;;;;;6.00;5.00;;;;;14.59;68.72;99654.88;5118879;27;45461;-71
2024/01/16 07:03:48;;;;;;;;;2.67;2.67;;;;;14.59;68.83;99663.63;5119483;27;45286;-72
2024/01/16 07:06:14;;;;;;;;;0.33;0.33;;;;;14.59;68.56;99652.25;5119383;27;45393;-71
2024/01/16 07:08:39;;;;;;;;;2.00;2.00;;;;;14.57;68.83;99656.63;5118441;27;45373;-72
2024/01/16 07:11:08;;;;;;;;;0.00;0.00;;;;;14.55;68.89;99656.59;5118484;27;45362;-71
2024/01/16 07:13:34;;;;;;;;;0.00;0.00;;;;;14.44;68.86;99637.31;5119085;27;45404;-72
2024/01/16 07:16:00;;;;;;;;;0.00;0.00;;;;;14.47;68.67;99648.72;5118989;27;45325;-71
2024/01/16 07:18:28;;;;;;;;;1.00;0.00;;;;;14.26;68.94;99617.19;5118701;27;45535;-71
2024/01/16 07:20:53;;;;;;;;;0.67;0.67;;;;;14.36;69.23;99644.31;5118656;27;45445;-72
2024/01/16 07:23:19;;;;;;;;;3.00;1.33;;;;;14.30;69.10;99645.19;5117397;27;45463;-72
2024/01/16 07:25:44;;;;;;;;;1.00;1.00;;;;;14.19;69.10;99639.09;5118632;27;45544;-71
2024/01/16 07:28:10;;;;;;;;;2.33;2.00;;;;;14.17;69.16;99654.84;5118346;27;45488;-71
2024/01/16 07:30:36;;;;;;;;;4.00;3.00;;;;;14.12;69.41;99657.47;5118515;27;45590;-72
2024/01/16 07:33:03;;;;;;;;;6.00;5.00;;;;;14.08;69.46;99653.06;5118526;27;45323;-72
2024/01/16 07:35:28;;;;;;;;;7.00;7.00;;;;;13.79;69.69;99616.28;5118541;27;45483;-71
2024/01/16 07:37:54;;;;;;;;;6.25;5.50;;;;;13.96;69.95;99652.16;5118185;27;45338;-71
2024/01/16 07:40:20;;;;;;;;;3.00;3.00;;;;;13.91;69.81;99666.16;5118953;27;45521;-72
2024/01/16 07:42:46;;;;;;;;;1.00;1.00;;;;;13.88;69.85;99660.91;5118554;27;45514;-72
2024/01/16 07:45:12;;;;;;;;;2.33;2.33;;;;;13.87;69.85;99671.41;5118780;27;45314;-72
2024/01/16 07:47:37;;;;;;;;;1.67;1.00;;;;;13.85;70.01;99675.78;5134146;27;46287;-70
2024/01/16 07:50:03;;;;;;;;;1.33;1.00;;;;;13.67;70.21;99659.09;5118297;27;45557;-70
2024/01/16 07:52:29;;;;;;;;;2.00;1.00;;;;;13.85;70.05;99679.28;5118714;27;45355;-71
2024/01/16 07:54:55;;;;;;;;;1.00;0.33;;;;;13.86;70.07;99680.16;5116853;27;45538;-70
2024/01/16 07:57:20;;;;;;;;;1.33;1.00;;;;;13.90;69.83;99674.03;5116609;27;45578;-72
2024/01/16 07:59:46;;;;;;;;;2.33;2.00;;;;;13.92;70.18;99672.28;5116967;27;45456;-71
2024/01/16 08:02:12;;;;;;;;;4.00;4.00;;;;;13.68;69.92;99637.22;5116956;27;45390;-71
2024/01/16 08:04:38;;;;;;;;;6.33;5.67;;;;;13.87;69.87;99674.03;5117340;27;45512;-71
2024/01/16 08:07:03;;;;;;;;;6.25;5.50;;;;;13.86;69.52;99674.91;5116758;27;45450;-71
2024/01/16 08:09:29;;;;;;;;;6.75;6.00;;;;;13.79;69.54;99663.53;5116855;27;45281;-70
2024/01/16 08:11:55;;;;;;;;;1.00;1.00;;;;;13.72;69.89;99665.22;5115591;27;45509;-70
2024/01/16 08:14:20;;;;;;;;;3.00;2.00;;;;;13.60;70.29;99635.47;5117323;27;45463;-71
2024/01/16 08:16:46;;;;;;;;;2.00;2.00;;;;;13.71;70.53;99647.75;5116677;27;45486;-70
2024/01/16 08:19:12;;;;;;;;;7.00;7.00;;;;;13.73;70.59;99648.63;5116643;27;45598;-71
2024/01/16 08:21:37;;;;;;;;;10.00;7.00;;;;;13.83;70.77;99664.41;5119275;27;45481;-71
2024/01/16 08:24:03;;;;;;;;;8.00;7.00;;;;;13.61;70.81;99617.09;5120698;27;45422;-71
2024/01/16 08:26:29;;;;;;;;;11.75;10.00;;;;;13.94;70.43;99667.91;5120039;27;46051;-70
2024/01/16 08:28:54;;;;;;;;;18.50;18.25;;;;;14.01;70.61;99674.94;5120947;27;45249;-70
2024/01/16 08:31:20;;;;;;;;;20.50;20.00;;;;;14.11;70.34;99673.22;5121459;27;45454;-70
2024/01/16 08:33:47;;;;;;;;;13.25;12.50;;;;;14.21;70.13;99681.97;5121626;27;45325;-71
2024/01/16 08:36:14;;;;;;;;;6.00;6.00;;;;;14.18;69.59;99660.94;5121280;27;45472;-71
2024/01/16 08:38:40;;;;;;;;;13.75;9.75;;;;;14.35;69.97;99676.75;5121097;27;45523;-70
2024/01/16 08:41:06;;;;;;;;;8.50;8.50;;;;;14.50;69.70;99682.88;5121101;27;45424;-73
2024/01/16 08:43:35;;;;;;;;;10.00;10.00;;;;;14.64;69.18;99687.28;5121310;27;45557;-70
2024/01/16 08:46:00;;;;;;;;;12.75;11.75;;;;;14.55;69.03;99639.97;5120982;27;46003;-70
2024/01/16 08:48:26;;;;;;;;;14.50;11.75;;;;;14.64;68.63;99643.50;5120969;27;45307;-70
2024/01/16 08:50:54;;;;;;;;;13.00;11.25;;;;;14.89;68.72;99673.22;5121349;27;45329;-71
2024/01/16 08:53:22;;;;;;;;;14.25;13.00;;;;;14.76;68.36;99633.81;5119334;27;45408;-72
2024/01/16 08:55:48;;;;;;;;;16.25;15.50;;;;;14.91;68.15;99655.69;5098171;27;45579;-70
2024/01/16 08:58:14;;;;;;;;;23.25;18.50;;;;;15.05;68.24;99671.44;5099504;27;45467;-72
2024/01/16 09:00:40;;;;;;;;;13.25;11.50;;;;;15.09;68.11;99674.94;5099837;27;45357;-71
2024/01/16 09:03:07;;;;;;;;;18.25;17.50;;;;;15.05;67.63;99666.19;5100076;27;45353;-73
2024/01/16 09:05:38;;;;;;;;;36.00;33.75;;;;;14.95;67.68;99668.84;5099517;27;45388;-70
2024/01/16 09:08:04;;;;;;;;;14.50;11.25;;;;;14.96;67.98;99674.13;5100064;27;45447;-71
2024/01/16 09:10:30;;;;;;;;;17.75;16.50;;;;;14.41;67.99;99572.50;5100324;27;45251;-71
2024/01/16 09:12:55;;;;;;;;;18.25;15.00;;;;;15.08;67.97;99671.47;5100842;27;45563;-71
2024/01/16 09:15:21;;;;;;;;;15.50;15.00;;;;;14.91;67.66;99645.19;5100306;27;45966;-70
2024/01/16 09:17:47;;;;;;;;;20.00;19.50;;;;;15.10;67.74;99671.47;5100015;27;45290;-71
2024/01/16 09:20:12;;;;;;;;;7.00;6.00;;;;;15.07;67.55;99667.06;5100190;27;45540;-70
2024/01/16 09:22:38;;;;;;;;;10.25;7.75;;;;;14.96;67.61;99658.34;5100471;27;45413;-72
2024/01/16 09:25:05;;;;;;;;;9.25;7.75;;;;;15.00;67.78;99656.56;5100024;27;45929;-70
2024/01/16 09:27:30;;;;;;;;;22.25;21.25;;;;;15.08;67.88;99676.72;5099915;27;45495;-71
2024/01/16 09:29:56;;;;;;;;;25.00;21.00;;;;;14.93;67.89;99642.56;5100145;27;45340;-71
2024/01/16 09:32:22;;;;;;;;;33.00;31.00;;;;;15.17;67.93;99675.81;5099669;27;45501;-70
2024/01/16 09:34:47;;;;;;;;;10.75;10.75;;;;;15.23;67.85;99670.53;5099581;27;45932;-71
2024/01/16 09:37:14;;;;;;;;;13.50;13.00;;;;;15.26;67.65;99660.00;5099465;27;45459;-72
2024/01/16 09:39:43;;;;;;;;;19.25;17.25;;;;;15.14;67.60;99639.00;5099700;27;45494;-71
2024/01/16 09:42:08;;;;;;;;;15.25;14.50;;;;;15.22;67.57;99655.63;5099858;27;45357;-71
2024/01/16 09:44:34;;;;;;;;;8.00;7.00;;;;;15.31;67.59;99671.38;5099623;27;45849;-72
2024/01/16 09:47:03;;;;;;;;;7.67;7.67;;;;;15.34;67.29;99665.25;5099520;27;45603;-71
2024/01/16 09:49:29;;;;;;;;;5.00;5.00;;;;;15.37;67.49;99674.88;5099890;27;45350;-71
2024/01/16 09:51:57;;;;;;;;;5.25;5.00;;;;;15.41;67.34;99666.09;5099936;27;45494;-71
2024/01/16 09:54:22;;;;;;;;;6.33;5.67;;;;;15.32;67.15;99646.81;5099243;27;45505;-72
2024/01/16 09:56:53;;;;;;;;;7.50;7.00;;;;;15.48;67.33;99670.47;5098955;27;45441;-71
2024/01/16 09:59:20;;;;;;;;;15.00;12.25;;;;;15.54;67.27;99664.25;5099484;27;45431;-71
2024/01/16 10:01:49;;;;;;;;;6.75;6.25;;;;;15.55;67.36;99653.72;5099739;27;45353;-71
2024/01/16 10:04:15;;;;;;;;;7.50;7.00;;;;;15.59;67.32;99650.19;5099235;27;46065;-71
2024/01/16 10:06:45;;;;;;;;;5.00;5.00;;;;;15.48;67.32;99630.97;5099208;27;45336;-71
2024/01/16 10:09:12;;;;;;;;;9.00;8.00;;;;;15.63;67.37;99638.78;5099272;27;45163;-71
2024/01/16 10:11:38;;;;;;;;;9.00;7.00;;;;;15.67;67.33;99642.28;5099411;27;45398;-71
2024/01/16 10:14:04;;;;;;;;;8.67;7.00;;;;;15.70;67.34;99642.28;5099056;27;46209;-71
2024/01/16 10:17:15;;;;;;;;;12.00;9.00;;;;;15.76;67.65;99641.41;5099223;27;45341;-71
2024/01/16 10:19:53;;;;;;;;;20.00;18.50;;;;;15.49;67.17;99587.97;5099018;27;45473;-71
2024/01/16 10:22:24;;;;;;;;;9.25;9.25;;;;;15.63;67.69;99607.19;5099084;27;45675;-71
2024/01/16 10:25:03;;;;;;;;;18.75;18.75;;;;;15.81;67.32;99618.53;5098687;27;46208;-71
2024/01/16 10:27:31;;;;;;;;;14.25;12.75;;;;;15.91;66.74;99625.47;5099294;27;45306;-71
2024/01/16 10:29:57;;;;;;;;;10.75;8.75;;;;;15.95;66.61;99615.81;5099120;27;45510;-71
2024/01/16 10:32:31;;;;;;;;;9.50;8.75;;;;;15.70;66.84;99577.31;5098761;27;45237;-72
2024/01/16 10:35:11;;;;;;;;;12.25;12.00;;;;;15.95;66.70;99611.41;5099013;27;46195;-71
2024/01/16 10:37:44;;;;;;;;;9.50;9.00;;;;;15.94;66.91;99593.88;5098701;27;45252;-70
2024/01/16 10:40:11;;;;;;;;;13.25;11.75;;;;;15.95;66.64;99579.78;5098742;27;45501;-71
2024/01/16 10:42:38;;;;;;;;;9.25;9.25;;;;;16.18;66.71;99598.06;5098838;27;45463;-71
2024/01/16 10:45:05;;;;;;;;;10.67;8.00;;;;;16.27;66.30;99589.19;5097291;27;46179;-71
2024/01/16 10:47:34;;;;;;;;;15.00;14.25;;;;;16.37;66.11;99592.63;5098371;27;45553;-71
2024/01/16 10:50:01;;;;;;;;;9.00;8.00;;;;;16.44;66.09;99589.06;5098499;27;45455;-71
2024/01/16 10:52:28;;;;;;;;;8.67;8.33;;;;;16.52;65.64;99583.72;5098645;27;45464;-70
2024/01/16 10:55:00;;;;;;;;;8.33;6.00;;;;;16.56;65.69;99575.75;5098275;27;46286;-70
2024/01/16 10:57:28;;;;;;;;;6.33;6.33;;;;;16.59;65.55;99570.47;5098476;27;45466;-70
2024/01/16 11:00:04;;;;;;;;;4.00;3.00;;;;;16.62;65.21;99566.91;5098280;27;45356;-71
2024/01/16 11:02:40;;;;;;;;;11.00;9.00;;;;;16.47;65.54;99529.28;5098692;27;45421;-71
2024/01/16 11:05:06;;;;;;;;;13.75;13.75;;;;;16.67;65.63;99558.06;5097988;27;46150;-73
2024/01/16 11:07:35;;;;;;;;;13.00;13.00;;;;;16.47;65.79;99518.75;5098282;27;45571;-72
2024/01/16 11:10:02;;;;;;;;;21.00;18.50;;;;;16.73;65.95;99554.47;5098267;27;45257;-72
2024/01/16 11:12:30;;;;;;;;;21.75;18.75;;;;;16.74;65.83;99550.97;5098522;27;45578;-70
2024/01/16 11:15:01;;;;;;;;;16.25;14.25;;;;;16.78;65.83;99539.50;5097858;27;46127;-70
2024/01/16 11:17:29;;;;;;;;;23.00;19.75;;;;;16.67;66.12;99509.72;5097688;27;45392;-70
2024/01/16 11:19:57;;;;;;;;;22.25;17.50;;;;;16.90;66.04;99541.16;5098129;27;45416;-71
2024/01/16 11:22:23;;;;;;;;;30.50;27.50;;;;;16.97;65.67;99523.47;5098040;27;45541;-71
2024/01/16 11:25:18;;;;;;;;;37.75;33.25;;;;;17.06;65.60;99520.72;5097701;27;46214;-71
2024/01/16 11:27:50;;;;;;;;;22.50;21.25;;;;;17.08;65.32;99490.78;5097893;27;45804;-70
2024/01/16 11:30:31;;;;;;;;;11.50;11.50;;;;;17.35;63.80;99507.13;5097974;27;45260;-71